sensor_id;sensor_type;location;lat;lon;timestamp;temperature;humidity
54158;DHT22;40065;49.894;10.358;2023-02-22T00:04:53;5.30;99.90
54158;DHT22;40065;49.894;10.358;2023-02-22T00:09:55;5.30;99.90
54158;DHT22;40065;49.894;10.358;2023-02-22T00:14:57;5.30;99.90
54158;DHT22;40065;49.894;10.358;2023-02-22T00:19:59;5.30;99.90
54158;DHT22;40065;49.894;10.358;2023-02-22T00:25:01;5.10;99.90
54158;DHT22;40065;49.894;10.358;2023-02-22T00:30:04;5.10;99.90
54158;DHT22;40065;49.894;10.358;2023-02-22T00:35:07;4.90;99.90
54158;DHT22;40065;49.894;10.358;2023-02-22T00:40:11;4.90;99.90
54158;DHT22;40065;49.894;10.358;2023-02-22T00:45:16;4.90;99.90
54158;DHT22;40065;49.894;10.358;2023-02-22T00:50:18;4.90;99.90
54158;DHT22;40065;49.894;10.358;2023-02-22T00:55:24;4.90;99.90
54158;DHT22;40065;49.894;10.358;2023-02-22T01:00:29;4.60;99.90
54158;DHT22;40065;49.894;10.358;2023-02-22T01:05:31;4.70;99.90
54158;DHT22;40065;49.894;10.358;2023-02-22T01:10:36;4.60;99.90
54158;DHT22;40065;49.894;10.358;2023-02-22T01:15:41;4.70;99.90
54158;DHT22;40065;49.894;10.358;2023-02-22T01:20:43;4.50;99.90
54158;DHT22;40065;49.894;10.358;2023-02-22T01:25:49;4.40;99.90
54158;DHT22;40065;49.894;10.358;2023-02-22T01:30:51;4.30;99.90
54158;DHT22;40065;49.894;10.358;2023-02-22T01:35:53;4.30;99.90
54158;DHT22;40065;49.894;10.358;2023-02-22T01:40:54;4.10;99.90
54158;DHT22;40065;49.894;10.358;2023-02-22T01:46:24;4.10;99.90
54158;DHT22;40065;49.894;10.358;2023-02-22T01:51:30;4.20;99.90
54158;DHT22;40065;49.894;10.358;2023-02-22T01:56:44;4.10;99.90
54158;DHT22;40065;49.894;10.358;2023-02-22T02:01:46;4.00;99.90
54158;DHT22;40065;49.894;10.358;2023-02-22T02:06:48;3.90;99.90
54158;DHT22;40065;49.894;10.358;2023-02-22T02:11:52;4.00;99.90
54158;DHT22;40065;49.894;10.358;2023-02-22T02:16:55;4.10;99.90
54158;DHT22;40065;49.894;10.358;2023-02-22T02:27:25;3.60;99.90
54158;DHT22;40065;49.894;10.358;2023-02-22T02:32:51;3.70;99.90
54158;DHT22;40065;49.894;10.358;2023-02-22T02:38:11;3.60;99.90
54158;DHT22;40065;49.894;10.358;2023-02-22T02:43:55;3.80;99.90
54158;DHT22;40065;49.894;10.358;2023-02-22T02:48:56;3.60;99.90
54158;DHT22;40065;49.894;10.358;2023-02-22T02:54:00;3.30;99.90
54158;DHT22;40065;49.894;10.358;2023-02-22T02:59:23;3.50;99.90
54158;DHT22;40065;49.894;10.358;2023-02-22T03:15:35;3.60;99.90
54158;DHT22;40065;49.894;10.358;2023-02-22T03:20:58;3.50;99.90
54158;DHT22;40065;49.894;10.358;2023-02-22T03:26:04;3.50;99.90
54158;DHT22;40065;49.894;10.358;2023-02-22T03:31:15;3.50;99.90
54158;DHT22;40065;49.894;10.358;2023-02-22T03:36:26;3.60;99.90
54158;DHT22;40065;49.894;10.358;2023-02-22T03:41:30;3.40;99.90
54158;DHT22;40065;49.894;10.358;2023-02-22T03:46:35;3.50;99.90
54158;DHT22;40065;49.894;10.358;2023-02-22T03:51:40;3.60;99.90
54158;DHT22;40065;49.894;10.358;2023-02-22T03:57:16;3.50;99.90
54158;DHT22;40065;49.894;10.358;2023-02-22T04:02:28;3.50;99.90
54158;DHT22;40065;49.894;10.358;2023-02-22T04:07:29;3.40;99.90
54158;DHT22;40065;49.894;10.358;2023-02-22T04:12:31;3.50;99.90
54158;DHT22;40065;49.894;10.358;2023-02-22T04:17:37;3.40;99.90
54158;DHT22;40065;49.894;10.358;2023-02-22T04:22:40;3.40;99.90
54158;DHT22;40065;49.894;10.358;2023-02-22T04:27:42;3.20;99.90
54158;DHT22;40065;49.894;10.358;2023-02-22T04:32:44;3.20;99.90
54158;DHT22;40065;49.894;10.358;2023-02-22T04:37:48;3.20;99.90
54158;DHT22;40065;49.894;10.358;2023-02-22T04:42:51;3.30;99.90
54158;DHT22;40065;49.894;10.358;2023-02-22T04:47:53;3.40;99.90
54158;DHT22;40065;49.894;10.358;2023-02-22T04:52:55;3.20;99.90
54158;DHT22;40065;49.894;10.358;2023-02-22T04:57:57;3.10;99.90
54158;DHT22;40065;49.894;10.358;2023-02-22T05:02:59;3.10;99.90
54158;DHT22;40065;49.894;10.358;2023-02-22T05:08:01;3.10;99.90
54158;DHT22;40065;49.894;10.358;2023-02-22T05:13:03;3.20;99.90
54158;DHT22;40065;49.894;10.358;2023-02-22T05:18:06;3.30;99.90
54158;DHT22;40065;49.894;10.358;2023-02-22T05:23:09;3.20;99.90
54158;DHT22;40065;49.894;10.358;2023-02-22T05:28:12;3.00;99.90
54158;DHT22;40065;49.894;10.358;2023-02-22T05:33:14;3.00;99.90
54158;DHT22;40065;49.894;10.358;2023-02-22T05:38:16;2.90;99.90
54158;DHT22;40065;49.894;10.358;2023-02-22T05:43:18;2.90;99.90
54158;DHT22;40065;49.894;10.358;2023-02-22T05:48:20;2.90;99.90
54158;DHT22;40065;49.894;10.358;2023-02-22T05:53:23;2.80;99.90
54158;DHT22;40065;49.894;10.358;2023-02-22T05:58:25;2.70;99.90
54158;DHT22;40065;49.894;10.358;2023-02-22T06:03:27;2.50;99.90
54158;DHT22;40065;49.894;10.358;2023-02-22T06:08:29;2.40;99.90
54158;DHT22;40065;49.894;10.358;2023-02-22T06:13:30;2.40;99.90
54158;DHT22;40065;49.894;10.358;2023-02-22T06:18:32;2.40;99.90
54158;DHT22;40065;49.894;10.358;2023-02-22T06:23:34;2.20;99.90
54158;DHT22;40065;49.894;10.358;2023-02-22T06:28:36;2.40;99.90
54158;DHT22;40065;49.894;10.358;2023-02-22T06:33:37;2.40;99.90
54158;DHT22;40065;49.894;10.358;2023-02-22T06:38:39;2.50;99.90
54158;DHT22;40065;49.894;10.358;2023-02-22T06:43:41;2.70;99.90
54158;DHT22;40065;49.894;10.358;2023-02-22T06:48:43;2.70;99.90
54158;DHT22;40065;49.894;10.358;2023-02-22T06:53:45;3.10;99.90
54158;DHT22;40065;49.894;10.358;2023-02-22T06:58:47;3.30;99.90
54158;DHT22;40065;49.894;10.358;2023-02-22T07:03:49;3.50;99.90
54158;DHT22;40065;49.894;10.358;2023-02-22T07:08:51;3.80;99.90
54158;DHT22;40065;49.894;10.358;2023-02-22T07:13:53;4.10;99.90
54158;DHT22;40065;49.894;10.358;2023-02-22T07:18:56;4.70;99.90
54158;DHT22;40065;49.894;10.358;2023-02-22T07:23:57;5.20;99.90
54158;DHT22;40065;49.894;10.358;2023-02-22T07:29:00;6.10;99.90
54158;DHT22;40065;49.894;10.358;2023-02-22T07:34:01;6.80;99.90
54158;DHT22;40065;49.894;10.358;2023-02-22T07:39:03;7.60;99.90
54158;DHT22;40065;49.894;10.358;2023-02-22T07:44:09;8.60;99.90
54158;DHT22;40065;49.894;10.358;2023-02-22T07:49:11;10.80;99.90
54158;DHT22;40065;49.894;10.358;2023-02-22T07:54:13;11.50;99.90
54158;DHT22;40065;49.894;10.358;2023-02-22T07:59:15;11.40;99.60
54158;DHT22;40065;49.894;10.358;2023-02-22T08:04:17;11.30;99.90
54158;DHT22;40065;49.894;10.358;2023-02-22T08:09:19;11.30;99.30
54158;DHT22;40065;49.894;10.358;2023-02-22T08:14:21;11.10;99.90
54158;DHT22;40065;49.894;10.358;2023-02-22T08:19:23;10.90;99.90
54158;DHT22;40065;49.894;10.358;2023-02-22T08:24:24;9.80;99.90
54158;DHT22;40065;49.894;10.358;2023-02-22T08:29:26;8.30;99.90
54158;DHT22;40065;49.894;10.358;2023-02-22T08:34:33;8.50;99.90
54158;DHT22;40065;49.894;10.358;2023-02-22T08:39:35;9.00;99.90
54158;DHT22;40065;49.894;10.358;2023-02-22T08:44:38;9.70;99.90
54158;DHT22;40065;49.894;10.358;2023-02-22T08:49:41;9.80;99.90
54158;DHT22;40065;49.894;10.358;2023-02-22T08:54:44;9.80;99.90
54158;DHT22;40065;49.894;10.358;2023-02-22T08:59:46;10.00;99.90
54158;DHT22;40065;49.894;10.358;2023-02-22T09:04:48;10.70;99.90
54158;DHT22;40065;49.894;10.358;2023-02-22T09:09:50;11.10;99.90
54158;DHT22;40065;49.894;10.358;2023-02-22T09:14:52;11.40;99.90
54158;DHT22;40065;49.894;10.358;2023-02-22T09:19:53;12.20;99.90
54158;DHT22;40065;49.894;10.358;2023-02-22T09:24:55;14.20;99.90
54158;DHT22;40065;49.894;10.358;2023-02-22T09:29:59;14.60;98.80
54158;DHT22;40065;49.894;10.358;2023-02-22T09:35:00;15.30;98.50
54158;DHT22;40065;49.894;10.358;2023-02-22T09:40:03;15.40;98.20
54158;DHT22;40065;49.894;10.358;2023-02-22T09:45:22;16.20;98.50
54158;DHT22;40065;49.894;10.358;2023-02-22T09:50:36;15.50;98.90
54158;DHT22;40065;49.894;10.358;2023-02-22T09:55:41;16.50;98.70
54158;DHT22;40065;49.894;10.358;2023-02-22T10:00:45;16.50;98.30
54158;DHT22;40065;49.894;10.358;2023-02-22T10:05:50;18.40;94.70
54158;DHT22;40065;49.894;10.358;2023-02-22T10:11:05;19.20;94.00
54158;DHT22;40065;49.894;10.358;2023-02-22T10:26:34;20.50;90.70
54158;DHT22;40065;49.894;10.358;2023-02-22T10:31:43;20.40;91.00
54158;DHT22;40065;49.894;10.358;2023-02-22T10:36:48;20.60;90.00
54158;DHT22;40065;49.894;10.358;2023-02-22T10:41:56;19.00;92.00
54158;DHT22;40065;49.894;10.358;2023-02-22T10:47:00;18.80;92.50
54158;DHT22;40065;49.894;10.358;2023-02-22T10:52:12;21.10;87.90
54158;DHT22;40065;49.894;10.358;2023-02-22T10:57:20;22.20;85.20
54158;DHT22;40065;49.894;10.358;2023-02-22T11:02:34;21.10;87.80
54158;DHT22;40065;49.894;10.358;2023-02-22T11:07:36;19.80;88.60
54158;DHT22;40065;49.894;10.358;2023-02-22T11:12:40;21.10;87.00
54158;DHT22;40065;49.894;10.358;2023-02-22T11:17:44;19.50;89.20
54158;DHT22;40065;49.894;10.358;2023-02-22T11:22:56;20.70;84.60
54158;DHT22;40065;49.894;10.358;2023-02-22T11:28:34;20.60;84.60
54158;DHT22;40065;49.894;10.358;2023-02-22T11:33:37;19.00;85.20
54158;DHT22;40065;49.894;10.358;2023-02-22T11:38:52;20.40;86.70
54158;DHT22;40065;49.894;10.358;2023-02-22T11:44:21;20.30;85.30
54158;DHT22;40065;49.894;10.358;2023-02-22T11:49:31;20.80;82.00
54158;DHT22;40065;49.894;10.358;2023-02-22T11:54:50;21.30;83.80
54158;DHT22;40065;49.894;10.358;2023-02-22T12:00:11;21.50;83.60
54158;DHT22;40065;49.894;10.358;2023-02-22T12:21:09;21.70;79.40
54158;DHT22;40065;49.894;10.358;2023-02-22T12:31:27;20.80;81.20
54158;DHT22;40065;49.894;10.358;2023-02-22T12:36:42;21.70;81.90
54158;DHT22;40065;49.894;10.358;2023-02-22T12:41:47;21.90;79.80
54158;DHT22;40065;49.894;10.358;2023-02-22T12:46:52;21.10;80.60
54158;DHT22;40065;49.894;10.358;2023-02-22T12:58:28;21.00;80.40
54158;DHT22;40065;49.894;10.358;2023-02-22T13:09:04;20.50;82.00
54158;DHT22;40065;49.894;10.358;2023-02-22T13:14:34;20.20;82.20
54158;DHT22;40065;49.894;10.358;2023-02-22T13:19:45;19.50;84.40
54158;DHT22;40065;49.894;10.358;2023-02-22T13:24:58;20.30;82.60
54158;DHT22;40065;49.894;10.358;2023-02-22T13:30:01;19.90;81.10
54158;DHT22;40065;49.894;10.358;2023-02-22T13:56:41;19.50;82.50
54158;DHT22;40065;49.894;10.358;2023-02-22T14:01:45;19.70;83.00
54158;DHT22;40065;49.894;10.358;2023-02-22T14:06:48;19.50;83.20
54158;DHT22;40065;49.894;10.358;2023-02-22T14:11:50;19.50;83.10
54158;DHT22;40065;49.894;10.358;2023-02-22T14:17:24;19.40;82.30
54158;DHT22;40065;49.894;10.358;2023-02-22T14:22:27;19.00;82.80
54158;DHT22;40065;49.894;10.358;2023-02-22T14:27:40;18.70;84.50
54158;DHT22;40065;49.894;10.358;2023-02-22T14:32:42;18.30;85.90
54158;DHT22;40065;49.894;10.358;2023-02-22T14:37:48;18.20;86.40
54158;DHT22;40065;49.894;10.358;2023-02-22T14:43:01;18.00;86.30
54158;DHT22;40065;49.894;10.358;2023-02-22T15:08:22;18.20;88.40
54158;DHT22;40065;49.894;10.358;2023-02-22T15:13:30;17.60;89.70
54158;DHT22;40065;49.894;10.358;2023-02-22T15:18:39;17.20;90.10
54158;DHT22;40065;49.894;10.358;2023-02-22T15:23:45;16.90;90.80
54158;DHT22;40065;49.894;10.358;2023-02-22T15:28:51;16.80;91.10
54158;DHT22;40065;49.894;10.358;2023-02-22T15:33:55;16.50;90.80
54158;DHT22;40065;49.894;10.358;2023-02-22T15:38:57;16.00;92.10
54158;DHT22;40065;49.894;10.358;2023-02-22T15:44:06;15.80;93.50
54158;DHT22;40065;49.894;10.358;2023-02-22T15:49:23;15.30;92.90
54158;DHT22;40065;49.894;10.358;2023-02-22T15:54:25;15.20;94.30
54158;DHT22;40065;49.894;10.358;2023-02-22T15:59:28;14.80;94.80
54158;DHT22;40065;49.894;10.358;2023-02-22T16:04:34;14.70;94.70
54158;DHT22;40065;49.894;10.358;2023-02-22T16:09:36;14.30;95.50
54158;DHT22;40065;49.894;10.358;2023-02-22T16:14:40;14.20;96.30
54158;DHT22;40065;49.894;10.358;2023-02-22T16:19:43;14.10;96.90
54158;DHT22;40065;49.894;10.358;2023-02-22T16:24:45;13.90;97.30
54158;DHT22;40065;49.894;10.358;2023-02-22T16:30:31;13.90;97.50
54158;DHT22;40065;49.894;10.358;2023-02-22T16:35:34;13.40;98.60
54158;DHT22;40065;49.894;10.358;2023-02-22T16:40:40;13.00;99.90
54158;DHT22;40065;49.894;10.358;2023-02-22T16:45:45;12.90;99.90
54158;DHT22;40065;49.894;10.358;2023-02-22T16:50:47;12.90;99.90
54158;DHT22;40065;49.894;10.358;2023-02-22T16:55:54;12.50;99.90
54158;DHT22;40065;49.894;10.358;2023-02-22T17:00:58;12.10;99.90
54158;DHT22;40065;49.894;10.358;2023-02-22T17:06:00;12.10;99.90
54158;DHT22;40065;49.894;10.358;2023-02-22T17:11:02;11.80;99.90
54158;DHT22;40065;49.894;10.358;2023-02-22T17:16:05;11.70;99.90
54158;DHT22;40065;49.894;10.358;2023-02-22T17:21:10;11.60;99.90
54158;DHT22;40065;49.894;10.358;2023-02-22T17:26:13;11.60;99.90
54158;DHT22;40065;49.894;10.358;2023-02-22T17:31:21;11.50;99.90
54158;DHT22;40065;49.894;10.358;2023-02-22T17:36:24;11.50;99.90
54158;DHT22;40065;49.894;10.358;2023-02-22T17:41:26;11.50;99.90
54158;DHT22;40065;49.894;10.358;2023-02-22T17:46:28;11.50;99.90
54158;DHT22;40065;49.894;10.358;2023-02-22T17:51:29;11.50;99.90
54158;DHT22;40065;49.894;10.358;2023-02-22T17:56:31;11.40;99.90
54158;DHT22;40065;49.894;10.358;2023-02-22T18:01:33;11.30;99.90
54158;DHT22;40065;49.894;10.358;2023-02-22T18:06:35;11.30;99.90
54158;DHT22;40065;49.894;10.358;2023-02-22T18:11:38;11.30;99.90
54158;DHT22;40065;49.894;10.358;2023-02-22T18:16:40;11.20;99.90
54158;DHT22;40065;49.894;10.358;2023-02-22T18:21:43;11.40;99.90
54158;DHT22;40065;49.894;10.358;2023-02-22T18:26:44;11.20;99.90
54158;DHT22;40065;49.894;10.358;2023-02-22T18:31:46;11.00;99.90
54158;DHT22;40065;49.894;10.358;2023-02-22T18:36:48;11.20;99.90
54158;DHT22;40065;49.894;10.358;2023-02-22T18:41:50;11.10;99.90
54158;DHT22;40065;49.894;10.358;2023-02-22T18:46:52;11.00;99.90
54158;DHT22;40065;49.894;10.358;2023-02-22T18:51:54;10.80;99.90
54158;DHT22;40065;49.894;10.358;2023-02-22T18:56:56;10.70;99.90
54158;DHT22;40065;49.894;10.358;2023-02-22T19:01:59;10.90;99.90
54158;DHT22;40065;49.894;10.358;2023-02-22T19:07:02;11.00;99.90
54158;DHT22;40065;49.894;10.358;2023-02-22T19:12:05;10.90;99.90
54158;DHT22;40065;49.894;10.358;2023-02-22T19:17:07;10.80;99.90
54158;DHT22;40065;49.894;10.358;2023-02-22T19:22:10;10.60;99.90
54158;DHT22;40065;49.894;10.358;2023-02-22T19:27:15;10.60;99.90
54158;DHT22;40065;49.894;10.358;2023-02-22T19:32:17;10.60;99.90
54158;DHT22;40065;49.894;10.358;2023-02-22T19:37:20;10.40;99.90
54158;DHT22;40065;49.894;10.358;2023-02-22T19:42:23;10.50;99.90
54158;DHT22;40065;49.894;10.358;2023-02-22T19:47:24;10.80;99.90
54158;DHT22;40065;49.894;10.358;2023-02-22T19:52:26;10.70;99.90
54158;DHT22;40065;49.894;10.358;2023-02-22T19:57:29;10.70;99.90
54158;DHT22;40065;49.894;10.358;2023-02-22T20:02:31;10.70;99.90
54158;DHT22;40065;49.894;10.358;2023-02-22T20:07:33;11.10;99.90
54158;DHT22;40065;49.894;10.358;2023-02-22T20:12:34;10.80;99.90
54158;DHT22;40065;49.894;10.358;2023-02-22T20:17:36;10.80;99.90
54158;DHT22;40065;49.894;10.358;2023-02-22T20:22:38;10.70;99.90
54158;DHT22;40065;49.894;10.358;2023-02-22T20:27:41;10.80;99.90
54158;DHT22;40065;49.894;10.358;2023-02-22T20:32:42;10.30;99.90
54158;DHT22;40065;49.894;10.358;2023-02-22T20:37:45;10.30;99.90
54158;DHT22;40065;49.894;10.358;2023-02-22T20:42:46;10.30;99.90
54158;DHT22;40065;49.894;10.358;2023-02-22T20:47:48;10.20;99.90
54158;DHT22;40065;49.894;10.358;2023-02-22T20:52:50;10.20;99.90
54158;DHT22;40065;49.894;10.358;2023-02-22T20:57:52;10.20;99.90
54158;DHT22;40065;49.894;10.358;2023-02-22T21:02:54;10.00;99.90
54158;DHT22;40065;49.894;10.358;2023-02-22T21:07:56;9.90;99.90
54158;DHT22;40065;49.894;10.358;2023-02-22T21:12:58;9.90;99.90
54158;DHT22;40065;49.894;10.358;2023-02-22T21:18:02;9.90;99.90
54158;DHT22;40065;49.894;10.358;2023-02-22T21:23:05;9.60;99.90
54158;DHT22;40065;49.894;10.358;2023-02-22T21:28:07;9.70;99.90
54158;DHT22;40065;49.894;10.358;2023-02-22T21:33:09;9.40;99.90
54158;DHT22;40065;49.894;10.358;2023-02-22T21:38:12;9.40;99.90
54158;DHT22;40065;49.894;10.358;2023-02-22T21:43:15;9.50;99.90
54158;DHT22;40065;49.894;10.358;2023-02-22T21:48:17;9.80;99.90
54158;DHT22;40065;49.894;10.358;2023-02-22T21:53:19;9.90;99.90
54158;DHT22;40065;49.894;10.358;2023-02-22T21:58:21;9.80;99.90
54158;DHT22;40065;49.894;10.358;2023-02-22T22:03:23;9.60;99.90
54158;DHT22;40065;49.894;10.358;2023-02-22T22:08:25;9.50;99.90
54158;DHT22;40065;49.894;10.358;2023-02-22T22:13:28;9.50;99.90
54158;DHT22;40065;49.894;10.358;2023-02-22T22:18:30;9.30;99.90
54158;DHT22;40065;49.894;10.358;2023-02-22T22:23:33;9.30;99.90
54158;DHT22;40065;49.894;10.358;2023-02-22T22:28:40;9.30;99.90
54158;DHT22;40065;49.894;10.358;2023-02-22T22:33:45;9.50;99.90
54158;DHT22;40065;49.894;10.358;2023-02-22T22:38:47;10.50;99.90
54158;DHT22;40065;49.894;10.358;2023-02-22T22:43:49;10.60;99.90
54158;DHT22;40065;49.894;10.358;2023-02-22T22:48:54;10.90;99.90
54158;DHT22;40065;49.894;10.358;2023-02-22T22:53:57;11.00;99.90
54158;DHT22;40065;49.894;10.358;2023-02-22T22:59:01;10.80;99.90
54158;DHT22;40065;49.894;10.358;2023-02-22T23:04:11;10.80;99.90
54158;DHT22;40065;49.894;10.358;2023-02-22T23:09:23;10.90;99.90
54158;DHT22;40065;49.894;10.358;2023-02-22T23:14:28;10.60;99.90
54158;DHT22;40065;49.894;10.358;2023-02-22T23:19:34;10.50;99.90
54158;DHT22;40065;49.894;10.358;2023-02-22T23:24:36;10.90;99.90
54158;DHT22;40065;49.894;10.358;2023-02-22T23:29:41;10.20;99.90
54158;DHT22;40065;49.894;10.358;2023-02-22T23:34:43;9.70;99.90
54158;DHT22;40065;49.894;10.358;2023-02-22T23:39:45;9.60;99.90
54158;DHT22;40065;49.894;10.358;2023-02-22T23:44:47;9.80;99.90
54158;DHT22;40065;49.894;10.358;2023-02-22T23:49:48;9.50;99.90
54158;DHT22;40065;49.894;10.358;2023-02-22T23:54:50;9.40;99.90
54158;DHT22;40065;49.894;10.358;2023-02-22T23:59:54;9.30;99.90
